createdAt,value
2017-07-21T00:00:53.401Z,1005.57
2017-07-21T00:01:53.390Z,1005.6
2017-07-21T00:02:53.382Z,1005.62
2017-07-21T00:03:53.372Z,1005.61
2017-07-21T00:04:53.363Z,1005.63
2017-07-21T00:05:53.353Z,1005.68
2017-07-21T00:06:53.345Z,1005.68
2017-07-21T00:07:53.333Z,1005.69
2017-07-21T00:08:53.325Z,1005.68
2017-07-21T00:09:53.314Z,1005.72
2017-07-21T00:10:53.305Z,1005.72
2017-07-21T00:11:53.298Z,1005.72
2017-07-21T00:12:53.287Z,1005.76
2017-07-21T00:13:53.276Z,1005.75
2017-07-21T00:14:53.269Z,1005.76
2017-07-21T00:15:53.258Z,1005.79
2017-07-21T00:16:53.248Z,1005.8
2017-07-21T00:17:53.242Z,1005.81
2017-07-21T00:18:53.227Z,1005.79
2017-07-21T00:19:53.219Z,1005.81
2017-07-21T00:20:53.210Z,1005.81
2017-07-21T00:21:53.201Z,1005.82
2017-07-21T00:22:53.189Z,1005.81
2017-07-21T00:23:53.182Z,1005.82
2017-07-21T00:24:53.174Z,1005.8
2017-07-21T00:25:53.168Z,1005.83
2017-07-21T00:26:53.158Z,1005.83
2017-07-21T00:27:53.144Z,1005.84
2017-07-21T00:28:53.134Z,1005.78
2017-07-21T00:29:53.123Z,1005.79
2017-07-21T00:30:53.115Z,1005.83
2017-07-21T00:31:53.109Z,1005.83
2017-07-21T00:32:53.098Z,1005.83
2017-07-21T00:33:53.087Z,1005.85
2017-07-21T00:34:53.075Z,1005.83
2017-07-21T00:35:53.067Z,1005.82
2017-07-21T00:36:53.055Z,1005.83
2017-07-21T00:37:53.047Z,1005.81
2017-07-21T00:38:53.037Z,1005.81
2017-07-21T00:39:53.027Z,1005.81
2017-07-21T00:40:53.018Z,1005.81
2017-07-21T00:41:53.008Z,1005.8
2017-07-21T00:42:52.999Z,1005.82
2017-07-21T00:43:52.989Z,1005.8
2017-07-21T00:44:52.979Z,1005.77
2017-07-21T00:45:52.968Z,1005.78
2017-07-21T00:46:52.958Z,1005.77
2017-07-21T00:47:52.948Z,1005.77
2017-07-21T00:48:52.938Z,1005.76
2017-07-21T00:49:52.929Z,1005.75
2017-07-21T00:50:52.920Z,1005.78
2017-07-21T00:51:52.908Z,1005.75
2017-07-21T00:52:52.899Z,1005.73
2017-07-21T00:53:52.890Z,1005.77
2017-07-21T00:54:52.880Z,1005.76
2017-07-21T00:55:52.869Z,1005.75
2017-07-21T00:56:52.858Z,1005.76
2017-07-21T00:57:52.849Z,1005.77
2017-07-21T00:58:52.839Z,1005.74
2017-07-21T00:59:52.828Z,1005.78
2017-07-21T01:00:52.820Z,1005.74
2017-07-21T01:01:52.809Z,1005.76
2017-07-21T01:02:52.800Z,1005.74
2017-07-21T01:03:52.789Z,1005.74
2017-07-21T01:04:52.780Z,1005.73
2017-07-21T01:05:52.972Z,1005.71
2017-07-21T01:06:52.759Z,1005.71
2017-07-21T01:07:52.751Z,1005.77
2017-07-21T01:08:52.739Z,1005.76
2017-07-21T01:09:52.736Z,1005.74
2017-07-21T01:10:52.718Z,1005.71
2017-07-21T01:11:52.707Z,1005.73
2017-07-21T01:12:52.699Z,1005.73
2017-07-21T01:13:52.687Z,1005.7
2017-07-21T01:14:52.677Z,1005.74
2017-07-21T01:15:52.667Z,1005.76
2017-07-21T01:16:52.657Z,1005.75
2017-07-21T01:17:52.648Z,1005.78
2017-07-21T01:18:52.637Z,1005.82
2017-07-21T01:19:52.627Z,1005.81
2017-07-21T01:20:52.617Z,1005.81
2017-07-21T01:21:52.605Z,1005.86
2017-07-21T01:22:52.596Z,1005.87
2017-07-21T01:23:52.584Z,1005.83
2017-07-21T01:24:52.573Z,1005.8
2017-07-21T01:25:52.568Z,1005.81
2017-07-21T01:26:52.555Z,1005.81
2017-07-21T01:27:52.547Z,1005.77
2017-07-21T01:28:52.535Z,1005.76
2017-07-21T01:29:52.524Z,1005.76
2017-07-21T01:30:52.516Z,1005.74
2017-07-21T01:31:52.504Z,1005.8
2017-07-21T01:32:52.494Z,1005.77
2017-07-21T01:33:52.483Z,1005.78
2017-07-21T01:34:52.474Z,1005.78
2017-07-21T01:35:52.461Z,1005.87
2017-07-21T01:36:52.452Z,1005.86
2017-07-21T01:37:52.442Z,1005.89
2017-07-21T01:38:52.433Z,1005.86
2017-07-21T01:39:52.421Z,1005.88
2017-07-21T01:40:52.415Z,1005.86
2017-07-21T01:41:52.402Z,1005.85
2017-07-21T01:42:52.390Z,1005.85
2017-07-21T01:43:52.380Z,1005.89
2017-07-21T01:44:52.370Z,1005.9
2017-07-21T01:45:52.360Z,1005.88
2017-07-21T01:46:52.351Z,1005.89
2017-07-21T01:47:52.341Z,1005.85
2017-07-21T01:48:52.328Z,1005.83
2017-07-21T01:49:52.320Z,1005.84
2017-07-21T01:50:52.311Z,1005.83
2017-07-21T01:51:52.298Z,1005.84
2017-07-21T01:52:52.288Z,1005.8
2017-07-21T01:53:52.277Z,1005.85
2017-07-21T01:54:52.266Z,1005.83
2017-07-21T01:55:52.276Z,1005.88
2017-07-21T01:56:52.248Z,1005.88
2017-07-21T01:57:52.237Z,1005.89
2017-07-21T01:58:52.226Z,1005.87
2017-07-21T01:59:52.214Z,1005.9
2017-07-21T02:00:52.206Z,1005.89
2017-07-21T02:01:52.193Z,1005.88
2017-07-21T02:02:52.184Z,1005.88
2017-07-21T02:03:52.173Z,1005.86
2017-07-21T02:04:52.163Z,1005.89
2017-07-21T02:05:52.151Z,1005.81
2017-07-21T02:06:52.141Z,1005.82
2017-07-21T02:07:52.129Z,1005.78
2017-07-21T02:08:52.118Z,1005.8
2017-07-21T02:09:52.113Z,1005.8
2017-07-21T02:10:52.098Z,1005.8
2017-07-21T02:11:52.087Z,1005.79
2017-07-21T02:12:52.076Z,1005.8
2017-07-21T02:13:52.065Z,1005.82
2017-07-21T02:14:52.053Z,1005.84
2017-07-21T02:15:52.044Z,1005.83
2017-07-21T02:16:52.034Z,1005.84
2017-07-21T02:17:52.025Z,1005.85
2017-07-21T02:18:52.011Z,1005.84
2017-07-21T02:19:51.999Z,1005.82
2017-07-21T02:20:51.990Z,1005.81
2017-07-21T02:21:51.977Z,1005.76
2017-07-21T02:22:51.967Z,1005.78
2017-07-21T02:23:51.958Z,1005.8
2017-07-21T02:24:51.945Z,1005.82
2017-07-21T02:25:51.935Z,1005.81
2017-07-21T02:26:51.924Z,1005.85
2017-07-21T02:27:51.914Z,1005.86
2017-07-21T02:28:51.901Z,1005.85
2017-07-21T02:29:51.893Z,1005.84
2017-07-21T02:30:51.880Z,1005.83
2017-07-21T02:31:51.869Z,1005.86
2017-07-21T02:32:51.864Z,1005.83
2017-07-21T02:33:51.853Z,1005.88
2017-07-21T02:34:51.834Z,1005.86
2017-07-21T02:35:51.826Z,1005.86
2017-07-21T02:36:51.813Z,1005.87
2017-07-21T02:37:51.802Z,1005.93
2017-07-21T02:38:51.790Z,1005.92
2017-07-21T02:39:51.780Z,1005.94
2017-07-21T02:40:51.769Z,1005.96
2017-07-21T02:41:51.757Z,1005.97
2017-07-21T02:42:51.746Z,1005.99
2017-07-21T02:43:51.735Z,1006
2017-07-21T02:44:51.723Z,1006.02
2017-07-21T02:45:51.712Z,1006.01
2017-07-21T02:46:51.702Z,1005.99
2017-07-21T02:47:51.690Z,1006.02
2017-07-21T02:48:51.678Z,1006.05
2017-07-21T02:49:51.668Z,1006.08
2017-07-21T02:50:51.656Z,1006.15
2017-07-21T02:51:51.645Z,1006.1
2017-07-21T02:52:51.633Z,1006.15
2017-07-21T02:53:51.622Z,1006.17
2017-07-21T02:54:51.610Z,1006.21
2017-07-21T02:55:51.603Z,1006.18
2017-07-21T02:56:51.591Z,1006.18
2017-07-21T02:57:51.579Z,1006.13
2017-07-21T02:58:51.566Z,1006.13
2017-07-21T02:59:51.554Z,1006.12
2017-07-21T03:00:51.544Z,1006.13
2017-07-21T03:01:51.532Z,1006.12
2017-07-21T03:02:51.519Z,1006.12
2017-07-21T03:03:51.533Z,1006.09
2017-07-21T03:04:51.496Z,1006.1
2017-07-21T03:05:51.688Z,1006.1
2017-07-21T03:06:51.483Z,1006.1
2017-07-21T03:07:51.462Z,1006.11
2017-07-21T03:08:51.454Z,1006.13
2017-07-21T03:09:51.440Z,1006.14
2017-07-21T03:10:51.427Z,1006.16
2017-07-21T03:11:51.417Z,1006.15
2017-07-21T03:12:51.405Z,1006.15
2017-07-21T03:13:51.395Z,1006.12
2017-07-21T03:14:51.382Z,1006.18
2017-07-21T03:15:51.372Z,1006.18
2017-07-21T03:16:51.363Z,1006.18
2017-07-21T03:17:51.375Z,1006.18
2017-07-21T03:18:51.336Z,1006.21
2017-07-21T03:19:51.324Z,1006.2
2017-07-21T03:20:51.313Z,1006.18
2017-07-21T03:21:51.308Z,1006.15
2017-07-21T03:22:51.291Z,1006.14
2017-07-21T03:23:51.278Z,1006.16
2017-07-21T03:24:51.266Z,1006.16
2017-07-21T03:25:51.254Z,1006.17
2017-07-21T03:26:51.242Z,1006.17
2017-07-21T03:27:51.234Z,1006.15
2017-07-21T03:28:51.220Z,1006.19
2017-07-21T03:29:51.206Z,1006.22
2017-07-21T03:30:51.199Z,1006.22
2017-07-21T03:31:51.186Z,1006.21
2017-07-21T03:32:51.171Z,1006.24
2017-07-21T03:33:51.189Z,1006.24
2017-07-21T03:34:51.149Z,1006.29
2017-07-21T03:35:51.140Z,1006.31
2017-07-21T03:36:51.126Z,1006.33
2017-07-21T03:37:51.115Z,1006.35
2017-07-21T03:38:51.105Z,1006.35
2017-07-21T03:39:51.091Z,1006.34
2017-07-21T03:40:51.078Z,1006.32
2017-07-21T03:41:51.068Z,1006.35
2017-07-21T03:42:51.056Z,1006.34
2017-07-21T03:43:51.044Z,1006.33
2017-07-21T03:44:51.045Z,1006.28
2017-07-21T03:45:51.020Z,1006.32
2017-07-21T03:46:51.008Z,1006.31
2017-07-21T03:47:50.998Z,1006.36
2017-07-21T03:48:50.988Z,1006.38
2017-07-21T03:49:50.976Z,1006.38
2017-07-21T03:50:50.963Z,1006.42
2017-07-21T03:51:50.949Z,1006.39
2017-07-21T03:52:50.936Z,1006.34
2017-07-21T03:53:50.927Z,1006.36
2017-07-21T03:54:50.915Z,1006.37
2017-07-21T03:55:50.900Z,1006.38
2017-07-21T03:56:50.890Z,1006.34
2017-07-21T03:57:50.876Z,1006.35
2017-07-21T03:58:50.865Z,1006.37
2017-07-21T03:59:50.853Z,1006.35
2017-07-21T04:00:50.843Z,1006.37
2017-07-21T04:01:50.830Z,1006.42
2017-07-21T04:02:50.816Z,1006.42
2017-07-21T04:03:50.807Z,1006.44
2017-07-21T04:04:50.793Z,1006.4
2017-07-21T04:05:50.781Z,1006.45
2017-07-21T04:06:50.770Z,1006.41
2017-07-21T04:07:50.759Z,1006.42
2017-07-21T04:08:50.744Z,1006.43
2017-07-21T04:09:50.733Z,1006.4
2017-07-21T04:10:50.723Z,1006.39
2017-07-21T04:11:50.709Z,1006.41
2017-07-21T04:12:50.696Z,1006.41
2017-07-21T04:13:50.686Z,1006.4
2017-07-21T04:14:50.676Z,1006.4
2017-07-21T04:15:50.663Z,1006.38
2017-07-21T04:16:50.649Z,1006.41
2017-07-21T04:17:50.639Z,1006.42
2017-07-21T04:18:50.626Z,1006.41
2017-07-21T04:19:50.614Z,1006.39
2017-07-21T04:20:50.603Z,1006.42
2017-07-21T04:21:50.591Z,1006.4
2017-07-21T04:22:50.579Z,1006.36
2017-07-21T04:23:50.569Z,1006.37
2017-07-21T04:24:50.555Z,1006.39
2017-07-21T04:25:50.542Z,1006.41
2017-07-21T04:26:50.531Z,1006.43
2017-07-21T04:27:50.522Z,1006.41
2017-07-21T04:28:50.513Z,1006.46
2017-07-21T04:29:50.494Z,1006.44
2017-07-21T04:30:50.486Z,1006.4
2017-07-21T04:31:50.469Z,1006.41
2017-07-21T04:32:50.458Z,1006.45
2017-07-21T04:33:50.448Z,1006.47
2017-07-21T04:34:50.434Z,1006.46
2017-07-21T04:35:50.422Z,1006.47
2017-07-21T04:36:50.412Z,1006.45
2017-07-21T04:37:50.399Z,1006.5
2017-07-21T04:38:50.387Z,1006.49
2017-07-21T04:39:50.375Z,1006.5
2017-07-21T04:40:50.366Z,1006.49
2017-07-21T04:41:50.349Z,1006.48
2017-07-21T04:42:50.339Z,1006.54
2017-07-21T04:43:50.327Z,1006.54
2017-07-21T04:44:50.316Z,1006.56
2017-07-21T04:45:50.303Z,1006.51
2017-07-21T04:46:50.291Z,1006.58
2017-07-21T04:47:50.279Z,1006.56
2017-07-21T04:48:50.268Z,1006.59
2017-07-21T04:49:50.256Z,1006.6
2017-07-21T04:50:50.243Z,1006.57
2017-07-21T04:51:50.232Z,1006.56
2017-07-21T04:52:50.220Z,1006.57
2017-07-21T04:53:50.207Z,1006.58
2017-07-21T04:54:50.196Z,1006.58
2017-07-21T04:55:50.184Z,1006.6
2017-07-21T04:56:50.173Z,1006.62
2017-07-21T04:57:50.160Z,1006.55
2017-07-21T04:58:50.148Z,1006.58
2017-07-21T04:59:50.138Z,1006.59
2017-07-21T05:00:50.123Z,1006.59
2017-07-21T05:01:50.113Z,1006.58
2017-07-21T05:02:50.102Z,1006.62
2017-07-21T05:03:50.089Z,1006.57
2017-07-21T05:04:50.077Z,1006.59
2017-07-21T05:05:50.268Z,1006.6
2017-07-21T05:06:50.056Z,1006.6
2017-07-21T05:07:50.042Z,1006.63
2017-07-21T05:08:50.031Z,1006.62
2017-07-21T05:09:50.018Z,1006.68
2017-07-21T05:10:50.007Z,1006.67
2017-07-21T05:11:49.996Z,1006.65
2017-07-21T05:12:49.985Z,1006.69
2017-07-21T05:13:49.973Z,1006.66
2017-07-21T05:14:49.960Z,1006.65
2017-07-21T05:15:49.950Z,1006.65
2017-07-21T05:16:49.936Z,1006.68
2017-07-21T05:17:49.927Z,1006.65
2017-07-21T05:18:49.915Z,1006.65
2017-07-21T05:19:49.901Z,1006.64
2017-07-21T05:20:49.891Z,1006.68
2017-07-21T05:21:49.877Z,1006.66
2017-07-21T05:22:49.867Z,1006.67
2017-07-21T05:23:49.857Z,1006.71
2017-07-21T05:24:49.848Z,1006.72
2017-07-21T05:25:49.831Z,1006.7
2017-07-21T05:26:49.821Z,1006.73
2017-07-21T05:27:49.809Z,1006.73
2017-07-21T05:28:49.801Z,1006.72
2017-07-21T05:29:49.786Z,1006.75
2017-07-21T05:30:49.772Z,1006.77
2017-07-21T05:31:49.760Z,1006.75
2017-07-21T05:32:49.751Z,1006.73
2017-07-21T05:33:49.739Z,1006.73
2017-07-21T05:34:49.727Z,1006.75
2017-07-21T05:35:49.720Z,1006.8
2017-07-21T05:36:49.703Z,1006.79
2017-07-21T05:37:49.695Z,1006.79
2017-07-21T05:38:49.680Z,1006.81
2017-07-21T05:39:49.670Z,1006.82
2017-07-21T05:40:49.707Z,1006.81
2017-07-21T05:41:49.647Z,1006.88
2017-07-21T05:42:49.634Z,1006.84
2017-07-21T05:43:49.624Z,1006.86
2017-07-21T05:44:49.611Z,1006.88
2017-07-21T05:45:49.601Z,1006.84
2017-07-21T05:46:49.629Z,1006.88
2017-07-21T05:47:49.576Z,1006.9
2017-07-21T05:48:49.566Z,1006.89
2017-07-21T05:49:49.555Z,1006.9
2017-07-21T05:50:49.547Z,1006.94
2017-07-21T05:51:49.534Z,1006.92
2017-07-21T05:52:49.520Z,1006.93
2017-07-21T05:53:49.509Z,1006.92
2017-07-21T05:54:49.497Z,1006.98
2017-07-21T05:55:49.491Z,1006.95
2017-07-21T05:56:49.476Z,1006.98
2017-07-21T05:57:49.465Z,1007
2017-07-21T05:58:49.453Z,1006.96
2017-07-21T05:59:49.440Z,1007
2017-07-21T06:00:49.432Z,1007.03
2017-07-21T06:01:49.420Z,1007
2017-07-21T06:02:49.408Z,1006.99
2017-07-21T06:03:49.396Z,1007
2017-07-21T06:04:49.387Z,1007.02
2017-07-21T06:05:49.374Z,1007.03
2017-07-21T06:06:49.362Z,1007.05
2017-07-21T06:07:49.351Z,1007.03
2017-07-21T06:08:49.339Z,1007.05
2017-07-21T06:09:49.328Z,1007.01
2017-07-21T06:10:49.320Z,1007.07
2017-07-21T06:11:49.305Z,1007.13
2017-07-21T06:12:49.296Z,1007.14
2017-07-21T06:13:49.284Z,1007.13
2017-07-21T06:14:49.271Z,1007.14
2017-07-21T06:15:49.260Z,1007.13
2017-07-21T06:16:49.248Z,1007.18
2017-07-21T06:17:49.238Z,1007.15
2017-07-21T06:18:49.228Z,1007.14
2017-07-21T06:19:49.216Z,1007.08
2017-07-21T06:20:49.203Z,1007.15
2017-07-21T06:21:49.219Z,1007.15
2017-07-21T06:22:49.183Z,1007.17
2017-07-21T06:23:49.169Z,1007.15
2017-07-21T06:24:49.159Z,1007.14
2017-07-21T06:25:49.149Z,1007.11
2017-07-21T06:26:49.138Z,1007.17
2017-07-21T06:27:49.125Z,1007.17
2017-07-21T06:28:49.115Z,1007.15
2017-07-21T06:29:49.104Z,1007.18
2017-07-21T06:30:49.094Z,1007.17
2017-07-21T06:31:49.082Z,1007.21
2017-07-21T06:32:49.070Z,1007.22
2017-07-21T06:33:49.059Z,1007.21
2017-07-21T06:34:49.049Z,1007.2
2017-07-21T06:35:49.037Z,1007.16
2017-07-21T06:36:49.030Z,1007.16
2017-07-21T06:37:49.016Z,1007.19
2017-07-21T06:38:49.003Z,1007.2
2017-07-21T06:39:48.994Z,1007.18
2017-07-21T06:40:48.983Z,1007.19
2017-07-21T06:41:48.971Z,1007.17
2017-07-21T06:42:48.961Z,1007.21
2017-07-21T06:43:48.975Z,1007.23
2017-07-21T06:44:48.939Z,1007.23
2017-07-21T06:45:48.929Z,1007.25
2017-07-21T06:46:48.917Z,1007.26
2017-07-21T06:47:48.911Z,1007.23
2017-07-21T06:48:48.898Z,1007.22
2017-07-21T06:49:48.884Z,1007.26
2017-07-21T06:50:48.875Z,1007.26
2017-07-21T06:51:48.863Z,1007.24
2017-07-21T06:52:48.853Z,1007.27
2017-07-21T06:53:48.841Z,1007.23
2017-07-21T06:54:48.833Z,1007.26
2017-07-21T06:55:48.822Z,1007.25
2017-07-21T06:56:48.809Z,1007.3
2017-07-21T06:57:48.802Z,1007.26
2017-07-21T06:58:48.788Z,1007.28
2017-07-21T06:59:48.778Z,1007.28
2017-07-21T07:00:48.766Z,1007.29
2017-07-21T07:01:48.755Z,1007.28
2017-07-21T07:02:48.745Z,1007.26
2017-07-21T07:03:48.735Z,1007.27
2017-07-21T07:04:48.724Z,1007.27
2017-07-21T07:05:48.918Z,1007.26
2017-07-21T07:06:48.703Z,1007.28
2017-07-21T07:07:48.693Z,1007.29
2017-07-21T07:08:48.682Z,1007.26
2017-07-21T07:09:48.671Z,1007.3
2017-07-21T07:10:48.660Z,1007.26
2017-07-21T07:11:48.652Z,1007.3
2017-07-21T07:12:48.640Z,1007.29
2017-07-21T07:13:48.632Z,1007.3
2017-07-21T07:14:48.619Z,1007.38
2017-07-21T07:15:48.608Z,1007.33
2017-07-21T07:16:48.600Z,1007.35
2017-07-21T07:17:48.592Z,1007.36
2017-07-21T07:18:48.578Z,1007.35
2017-07-21T07:19:48.570Z,1007.35
2017-07-21T07:20:48.560Z,1007.33
2017-07-21T07:21:48.549Z,1007.32
2017-07-21T07:22:48.539Z,1007.37
2017-07-21T07:23:48.536Z,1007.36
2017-07-21T07:24:48.524Z,1007.35
2017-07-21T07:25:48.513Z,1007.34
2017-07-21T07:26:48.498Z,1007.38
2017-07-21T07:27:48.491Z,1007.34
2017-07-21T07:28:48.479Z,1007.3
2017-07-21T07:29:48.467Z,1007.33
2017-07-21T07:30:48.456Z,1007.34
2017-07-21T07:31:48.451Z,1007.34
2017-07-21T07:32:48.438Z,1007.34
2017-07-21T07:33:48.433Z,1007.33
2017-07-21T07:34:48.424Z,1007.55
2017-07-21T07:35:48.405Z,1007.66
2017-07-21T07:36:48.404Z,1007.67
2017-07-21T07:37:48.389Z,1007.7
2017-07-21T07:38:48.379Z,1007.66
2017-07-21T07:39:48.371Z,1007.7
2017-07-21T07:40:48.360Z,1007.64
2017-07-21T07:41:48.356Z,1007.69
2017-07-21T07:42:48.348Z,1007.7
2017-07-21T07:43:48.340Z,1007.67
2017-07-21T07:44:48.336Z,1007.66
2017-07-21T07:45:48.329Z,1007.71
2017-07-21T07:46:48.328Z,1007.68
2017-07-21T07:47:48.319Z,1007.72
2017-07-21T07:48:48.314Z,1007.73
2017-07-21T07:49:48.309Z,1007.71
2017-07-21T07:50:48.303Z,1007.68
2017-07-21T07:51:48.300Z,1007.67
2017-07-21T07:52:48.294Z,1007.64
2017-07-21T07:53:48.290Z,1007.65
2017-07-21T07:54:48.287Z,1007.7
2017-07-21T07:55:48.282Z,1007.68
2017-07-21T07:56:48.279Z,1007.61
2017-07-21T07:57:48.279Z,1007.64
2017-07-21T07:58:48.274Z,1007.68
2017-07-21T07:59:48.271Z,1007.66
2017-07-21T08:00:48.267Z,1007.64
2017-07-21T08:02:48.259Z,1007.62
2017-07-21T08:03:48.260Z,1007.63
2017-07-21T08:04:48.256Z,1007.66
2017-07-21T08:05:48.253Z,1007.68
2017-07-21T08:06:48.251Z,1007.68
2017-07-21T08:07:48.254Z,1007.69
2017-07-21T08:08:48.248Z,1007.7
2017-07-21T08:09:48.245Z,1007.69
2017-07-21T08:10:48.244Z,1007.69
2017-07-21T08:11:48.240Z,1007.68
2017-07-21T08:12:48.239Z,1007.68
2017-07-21T08:13:48.240Z,1007.63
2017-07-21T08:14:48.235Z,1007.67
2017-07-21T08:15:48.234Z,1007.69
2017-07-21T08:16:48.235Z,1007.7
2017-07-21T08:17:48.232Z,1007.65
2017-07-21T08:18:48.233Z,1007.67
2017-07-21T08:19:48.232Z,1007.68
2017-07-21T08:20:48.231Z,1007.72
2017-07-21T08:21:48.228Z,1007.71
2017-07-21T08:22:48.228Z,1007.71
2017-07-21T08:23:48.228Z,1007.69
2017-07-21T08:24:48.230Z,1007.68
2017-07-21T08:25:48.228Z,1007.73
2017-07-21T08:26:48.229Z,1007.73
2017-07-21T08:27:48.229Z,1007.78
2017-07-21T08:28:48.230Z,1007.8
2017-07-21T08:29:48.228Z,1007.81
2017-07-21T08:30:48.229Z,1007.91
2017-07-21T08:31:48.226Z,1007.92
2017-07-21T08:32:48.227Z,1007.98
2017-07-21T08:33:48.228Z,1008.01
2017-07-21T08:34:48.229Z,1007.94
2017-07-21T08:35:48.228Z,1007.96
2017-07-21T08:36:48.229Z,1007.96
2017-07-21T08:37:48.233Z,1008
2017-07-21T08:38:48.229Z,1008
2017-07-21T08:39:48.229Z,1008.02
2017-07-21T08:40:48.232Z,1008.03
2017-07-21T08:41:48.231Z,1008.05
2017-07-21T08:42:48.231Z,1008.05
2017-07-21T08:43:48.232Z,1008.02
2017-07-21T08:44:48.235Z,1007.96
2017-07-21T08:45:48.237Z,1007.99
2017-07-21T08:46:48.234Z,1007.97
2017-07-21T08:47:48.237Z,1007.88
2017-07-21T08:48:48.260Z,1007.77
2017-07-21T08:49:48.241Z,1007.86
2017-07-21T08:50:48.241Z,1007.71
2017-07-21T08:51:48.242Z,1007.65
2017-07-21T08:52:48.244Z,1007.57
2017-07-21T08:53:48.242Z,1007.64
2017-07-21T08:54:48.241Z,1007.65
2017-07-21T08:55:48.242Z,1007.61
2017-07-21T08:56:48.247Z,1007.61
2017-07-21T08:57:48.241Z,1007.61
2017-07-21T08:58:48.240Z,1007.71
2017-07-21T08:59:48.238Z,1007.51
2017-07-21T09:00:48.237Z,1007.5
2017-07-21T09:01:48.236Z,1007.52
2017-07-21T09:02:48.234Z,1007.52
2017-07-21T09:03:48.234Z,1007.54
2017-07-21T09:04:48.230Z,1007.49
2017-07-21T09:05:48.430Z,1007.48
2017-07-21T09:06:48.226Z,1007.43
2017-07-21T09:07:48.224Z,1007.46
2017-07-21T09:08:48.220Z,1007.48
2017-07-21T09:09:48.217Z,1007.45
2017-07-21T09:10:48.213Z,1007.4
2017-07-21T09:11:48.211Z,1007.55
2017-07-21T09:12:48.207Z,1007.53
2017-07-21T09:13:48.203Z,1007.47
2017-07-21T09:14:48.199Z,1007.43
2017-07-21T09:15:48.198Z,1007.47
2017-07-21T09:16:48.191Z,1007.51
2017-07-21T09:17:48.187Z,1007.49
2017-07-21T09:18:48.183Z,1007.46
2017-07-21T09:19:48.179Z,1007.41
2017-07-21T09:20:48.175Z,1007.43
2017-07-21T09:21:48.171Z,1007.35
2017-07-21T09:22:48.166Z,1007.33
2017-07-21T09:23:48.160Z,1007.37
2017-07-21T09:24:48.155Z,1007.57
2017-07-21T09:25:48.152Z,1007.48
2017-07-21T09:26:48.146Z,1007.36
2017-07-21T09:27:48.143Z,1007.37
2017-07-21T09:28:48.139Z,1007.34
2017-07-21T09:29:48.134Z,1007.33
2017-07-21T09:30:48.127Z,1007.32
2017-07-21T09:31:48.121Z,1007.31
2017-07-21T09:32:48.116Z,1007.36
2017-07-21T09:33:48.112Z,1007.28
2017-07-21T09:34:48.108Z,1007.3
2017-07-21T09:35:48.101Z,1007.3
2017-07-21T09:36:48.095Z,1007.31
2017-07-21T09:37:48.090Z,1007.32
2017-07-21T09:38:48.086Z,1007.31
2017-07-21T09:39:48.079Z,1007.3
2017-07-21T09:40:48.075Z,1007.32
2017-07-21T09:41:48.068Z,1007.28
2017-07-21T09:42:48.063Z,1007.25
2017-07-21T09:43:48.059Z,1007.24
2017-07-21T09:44:48.054Z,1007.25
2017-07-21T09:45:48.047Z,1007.26
2017-07-21T09:46:48.041Z,1007.23
2017-07-21T09:47:48.037Z,1007.21
2017-07-21T09:48:48.033Z,1007.18
2017-07-21T09:49:48.025Z,1007.16
2017-07-21T09:50:48.021Z,1007.17
2017-07-21T09:51:48.014Z,1007.22
2017-07-21T09:52:48.007Z,1007.18
2017-07-21T09:53:48.003Z,1007.16
2017-07-21T09:54:47.997Z,1007.13
2017-07-21T09:55:47.990Z,1007.22
2017-07-21T09:56:47.985Z,1007.19
2017-07-21T09:57:47.982Z,1007.18
2017-07-21T09:58:47.975Z,1007.18
2017-07-21T09:59:47.968Z,1007.16
2017-07-21T10:00:47.962Z,1007.13
2017-07-21T10:01:47.955Z,1007.15
2017-07-21T10:02:47.948Z,1007.11
2017-07-21T10:03:47.943Z,1007.12
2017-07-21T10:04:47.936Z,1007.12
2017-07-21T10:05:47.934Z,1007.11
2017-07-21T10:06:47.924Z,1007.08
2017-07-21T10:07:47.917Z,1007.09
2017-07-21T10:08:47.912Z,1007.12
2017-07-21T10:09:47.907Z,1007.12
2017-07-21T10:10:47.904Z,1007.16
2017-07-21T10:11:47.895Z,1007.1
2017-07-21T10:12:47.890Z,1007.14
2017-07-21T10:13:47.883Z,1007.17
2017-07-21T10:14:47.876Z,1007.41
2017-07-21T10:15:47.870Z,1007.63
2017-07-21T10:16:47.864Z,1007.62
2017-07-21T10:17:47.858Z,1007.6
2017-07-21T10:18:47.853Z,1007.31
2017-07-21T10:19:47.848Z,1007.24
2017-07-21T10:20:47.845Z,1007.21
2017-07-21T10:21:47.838Z,1007.25
2017-07-21T10:22:47.833Z,1007.2
2017-07-21T10:23:47.832Z,1007.16
2017-07-21T10:24:47.848Z,1007.22
2017-07-21T10:25:47.820Z,1007.28
2017-07-21T10:26:47.816Z,1007.32
2017-07-21T10:27:47.812Z,1007.35
2017-07-21T10:28:47.808Z,1007.52
2017-07-21T10:29:47.804Z,1007.52
2017-07-21T10:30:47.802Z,1007.47
2017-07-21T10:31:47.800Z,1007.5
2017-07-21T10:32:47.793Z,1007.5
2017-07-21T10:33:47.791Z,1007.47
2017-07-21T10:34:47.791Z,1007.51
2017-07-21T10:35:47.790Z,1007.52
2017-07-21T10:36:47.788Z,1007.47
2017-07-21T10:37:47.786Z,1007.49
2017-07-21T10:38:47.785Z,1007.5
2017-07-21T10:39:47.785Z,1007.5
2017-07-21T10:40:47.788Z,1007.54
2017-07-21T10:41:47.787Z,1007.49
2017-07-21T10:42:47.787Z,1007.53
2017-07-21T10:43:47.787Z,1007.49
2017-07-21T10:44:47.790Z,1007.43
2017-07-21T10:45:47.791Z,1007.48
2017-07-21T10:46:47.793Z,1007.43
2017-07-21T10:47:47.794Z,1007.4
2017-07-21T10:48:47.795Z,1007.42
2017-07-21T10:49:47.799Z,1007.37
2017-07-21T10:50:47.801Z,1007.34
2017-07-21T10:51:47.803Z,1007.32
2017-07-21T10:52:47.806Z,1007.28
2017-07-21T10:53:47.809Z,1007.22
2017-07-21T10:54:47.812Z,1007.22
2017-07-21T10:55:47.815Z,1007.17
2017-07-21T10:56:47.820Z,1007.09
2017-07-21T10:57:47.822Z,1007.12
2017-07-21T10:58:47.825Z,1007.07
2017-07-21T10:59:47.827Z,1007.05
2017-07-21T11:00:47.830Z,1007.04
2017-07-21T11:01:47.833Z,1007
2017-07-21T11:02:47.837Z,1006.97
2017-07-21T11:03:47.839Z,1006.85
2017-07-21T11:04:47.846Z,1006.94
2017-07-21T11:05:48.050Z,1006.87
2017-07-21T11:06:47.848Z,1006.87
2017-07-21T11:07:47.854Z,1006.84
2017-07-21T11:08:47.857Z,1006.89
2017-07-21T11:09:47.860Z,1006.89
2017-07-21T11:10:47.865Z,1006.86
2017-07-21T11:11:47.866Z,1006.92
2017-07-21T11:12:47.870Z,1006.86
2017-07-21T11:13:47.876Z,1006.88
2017-07-21T11:14:47.878Z,1006.89
2017-07-21T11:15:47.882Z,1006.88
2017-07-21T11:16:47.887Z,1006.84
2017-07-21T11:17:47.889Z,1006.85
2017-07-21T11:18:47.893Z,1006.85
2017-07-21T11:19:47.897Z,1006.78
2017-07-21T11:20:47.902Z,1006.75
2017-07-21T11:21:47.904Z,1006.72
2017-07-21T11:22:47.909Z,1006.8
2017-07-21T11:23:47.913Z,1006.73
2017-07-21T11:24:47.916Z,1006.7
2017-07-21T11:25:47.922Z,1006.67
2017-07-21T11:26:47.924Z,1006.65
2017-07-21T11:27:47.927Z,1006.64
2017-07-21T11:28:47.932Z,1006.7
2017-07-21T11:29:47.935Z,1006.65
2017-07-21T11:30:47.940Z,1006.59
2017-07-21T11:31:47.944Z,1006.61
2017-07-21T11:32:47.948Z,1006.68
2017-07-21T11:33:47.953Z,1006.6
2017-07-21T11:34:47.956Z,1006.62
2017-07-21T11:35:48.011Z,1006.61
2017-07-21T11:36:47.967Z,1006.65
2017-07-21T11:37:47.970Z,1006.66
2017-07-21T11:38:47.972Z,1006.6
2017-07-21T11:39:47.976Z,1006.59
2017-07-21T11:40:47.980Z,1006.64
2017-07-21T11:41:47.991Z,1006.67
2017-07-21T11:42:47.989Z,1006.67
2017-07-21T11:43:47.996Z,1006.64
2017-07-21T11:44:48.000Z,1006.6
2017-07-21T11:45:48.001Z,1006.61
2017-07-21T11:46:48.007Z,1006.62
2017-07-21T11:47:48.012Z,1006.66
2017-07-21T11:48:48.017Z,1006.59
2017-07-21T11:49:48.020Z,1006.64
2017-07-21T11:50:48.024Z,1006.54
2017-07-21T11:51:48.029Z,1006.57
2017-07-21T11:52:48.035Z,1006.62
2017-07-21T11:53:48.038Z,1006.6
2017-07-21T11:54:48.043Z,1006.54
2017-07-21T11:55:48.100Z,1006.52
2017-07-21T11:56:48.052Z,1006.51
2017-07-21T11:57:48.058Z,1006.51
2017-07-21T11:58:48.065Z,1006.51
2017-07-21T11:59:48.068Z,1006.51
2017-07-21T12:00:48.121Z,1006.51
2017-07-21T12:01:48.074Z,1006.45
2017-07-21T12:02:48.078Z,1006.45
2017-07-21T12:03:48.082Z,1006.51
2017-07-21T12:04:48.088Z,1006.46
2017-07-21T12:05:48.097Z,1006.44
2017-07-21T12:06:48.099Z,1006.41
2017-07-21T12:07:48.102Z,1006.38
2017-07-21T12:08:48.108Z,1006.41
2017-07-21T12:09:48.116Z,1006.37